sensor_id;sensor_type;location;lat;lon;timestamp;P1;durP1;ratioP1;P2;durP2;ratioP2
66935;SDS011;53847;51.984;5.896;2022-08-18T00:01:13;12.77;;;11.57;;
66935;SDS011;53847;51.984;5.896;2022-08-18T00:03:41;11.98;;;10.90;;
66935;SDS011;53847;51.984;5.896;2022-08-18T00:06:10;9.98;;;9.07;;
66935;SDS011;53847;51.984;5.896;2022-08-18T00:08:36;9.95;;;9.15;;
66935;SDS011;53847;51.984;5.896;2022-08-18T00:11:02;7.93;;;7.22;;
66935;SDS011;53847;51.984;5.896;2022-08-18T00:13:29;9.55;;;8.73;;
66935;SDS011;53847;51.984;5.896;2022-08-18T00:15:55;11.38;;;10.38;;
66935;SDS011;53847;51.984;5.896;2022-08-18T00:18:21;9.23;;;8.43;;
66935;SDS011;53847;51.984;5.896;2022-08-18T00:20:47;9.15;;;8.40;;
66935;SDS011;53847;51.984;5.896;2022-08-18T00:23:14;9.32;;;8.52;;
66935;SDS011;53847;51.984;5.896;2022-08-18T00:25:40;11.60;;;10.60;;
66935;SDS011;53847;51.984;5.896;2022-08-18T00:28:07;9.63;;;8.82;;
66935;SDS011;53847;51.984;5.896;2022-08-18T00:30:33;9.10;;;8.30;;
66935;SDS011;53847;51.984;5.896;2022-08-18T00:32:59;9.25;;;8.43;;
66935;SDS011;53847;51.984;5.896;2022-08-18T00:35:27;11.55;;;10.45;;
66935;SDS011;53847;51.984;5.896;2022-08-18T00:38:04;10.95;;;9.95;;
66935;SDS011;53847;51.984;5.896;2022-08-18T00:40:35;9.80;;;8.90;;
66935;SDS011;53847;51.984;5.896;2022-08-18T00:43:05;8.98;;;8.13;;
66935;SDS011;53847;51.984;5.896;2022-08-18T00:45:36;8.95;;;8.07;;
66935;SDS011;53847;51.984;5.896;2022-08-18T00:48:04;11.60;;;10.60;;
66935;SDS011;53847;51.984;5.896;2022-08-18T00:50:33;11.35;;;10.45;;
66935;SDS011;53847;51.984;5.896;2022-08-18T00:53:09;8.52;;;7.82;;
66935;SDS011;53847;51.984;5.896;2022-08-18T00:55:40;8.40;;;7.70;;
66935;SDS011;53847;51.984;5.896;2022-08-18T00:58:09;11.18;;;10.18;;
66935;SDS011;53847;51.984;5.896;2022-08-18T01:00:39;10.70;;;9.57;;
66935;SDS011;53847;51.984;5.896;2022-08-18T01:03:07;11.40;;;10.40;;
66935;SDS011;53847;51.984;5.896;2022-08-18T01:05:38;12.13;;;11.02;;
66935;SDS011;53847;51.984;5.896;2022-08-18T01:08:11;9.52;;;8.63;;
66935;SDS011;53847;51.984;5.896;2022-08-18T01:10:39;8.98;;;8.18;;
66935;SDS011;53847;51.984;5.896;2022-08-18T01:13:05;10.60;;;9.68;;
66935;SDS011;53847;51.984;5.896;2022-08-18T01:15:32;10.30;;;9.40;;
66935;SDS011;53847;51.984;5.896;2022-08-18T01:18:02;7.93;;;7.22;;
66935;SDS011;53847;51.984;5.896;2022-08-18T01:20:35;9.43;;;8.63;;
66935;SDS011;53847;51.984;5.896;2022-08-18T01:23:14;7.63;;;6.93;;
66935;SDS011;53847;51.984;5.896;2022-08-18T01:25:42;7.30;;;6.70;;
66935;SDS011;53847;51.984;5.896;2022-08-18T01:28:10;7.10;;;6.50;;
66935;SDS011;53847;51.984;5.896;2022-08-18T01:30:46;6.43;;;5.82;;
66935;SDS011;53847;51.984;5.896;2022-08-18T01:33:15;6.90;;;6.30;;
66935;SDS011;53847;51.984;5.896;2022-08-18T01:35:42;5.05;;;4.65;;
66935;SDS011;53847;51.984;5.896;2022-08-18T01:38:11;5.97;;;5.47;;
66935;SDS011;53847;51.984;5.896;2022-08-18T01:40:38;7.10;;;6.50;;
66935;SDS011;53847;51.984;5.896;2022-08-18T01:43:04;7.18;;;6.45;;
66935;SDS011;53847;51.984;5.896;2022-08-18T01:45:30;6.15;;;5.57;;
66935;SDS011;53847;51.984;5.896;2022-08-18T01:47:56;6.75;;;6.15;;
66935;SDS011;53847;51.984;5.896;2022-08-18T01:50:22;6.63;;;6.13;;
66935;SDS011;53847;51.984;5.896;2022-08-18T01:52:48;6.70;;;6.10;;
66935;SDS011;53847;51.984;5.896;2022-08-18T01:55:14;7.07;;;6.38;;
66935;SDS011;53847;51.984;5.896;2022-08-18T01:57:40;6.00;;;5.40;;
66935;SDS011;53847;51.984;5.896;2022-08-18T02:00:10;5.25;;;4.85;;
66935;SDS011;53847;51.984;5.896;2022-08-18T02:02:39;5.25;;;4.78;;
66935;SDS011;53847;51.984;5.896;2022-08-18T02:05:08;5.90;;;5.40;;
66935;SDS011;53847;51.984;5.896;2022-08-18T02:07:44;5.38;;;4.88;;
66935;SDS011;53847;51.984;5.896;2022-08-18T02:10:10;4.72;;;4.28;;
66935;SDS011;53847;51.984;5.896;2022-08-18T02:12:37;6.20;;;5.70;;
66935;SDS011;53847;51.984;5.896;2022-08-18T02:15:04;6.05;;;5.20;;
66935;SDS011;53847;51.984;5.896;2022-08-18T02:17:35;5.60;;;5.15;;
66935;SDS011;53847;51.984;5.896;2022-08-18T02:20:03;5.90;;;5.38;;
66935;SDS011;53847;51.984;5.896;2022-08-18T02:22:30;7.03;;;6.43;;
66935;SDS011;53847;51.984;5.896;2022-08-18T02:24:56;5.88;;;5.28;;
66935;SDS011;53847;51.984;5.896;2022-08-18T02:27:22;5.55;;;5.05;;
66935;SDS011;53847;51.984;5.896;2022-08-18T02:29:49;6.95;;;6.25;;
66935;SDS011;53847;51.984;5.896;2022-08-18T02:32:15;5.70;;;5.13;;
66935;SDS011;53847;51.984;5.896;2022-08-18T02:34:41;5.93;;;5.43;;
66935;SDS011;53847;51.984;5.896;2022-08-18T02:37:07;6.70;;;6.10;;
66935;SDS011;53847;51.984;5.896;2022-08-18T02:39:34;5.50;;;5.00;;
66935;SDS011;53847;51.984;5.896;2022-08-18T02:42:01;5.90;;;5.40;;
66935;SDS011;53847;51.984;5.896;2022-08-18T02:44:31;5.18;;;4.80;;
66935;SDS011;53847;51.984;5.896;2022-08-18T02:46:57;4.63;;;4.22;;
66935;SDS011;53847;51.984;5.896;2022-08-18T02:49:24;5.00;;;4.32;;
66935;SDS011;53847;51.984;5.896;2022-08-18T02:51:50;5.25;;;4.80;;
66935;SDS011;53847;51.984;5.896;2022-08-18T02:54:18;5.60;;;5.10;;
66935;SDS011;53847;51.984;5.896;2022-08-18T02:56:45;6.88;;;5.80;;
66935;SDS011;53847;51.984;5.896;2022-08-18T02:59:14;4.68;;;4.28;;
66935;SDS011;53847;51.984;5.896;2022-08-18T03:01:51;5.45;;;5.03;;
66935;SDS011;53847;51.984;5.896;2022-08-18T03:04:22;6.00;;;5.50;;
66935;SDS011;53847;51.984;5.896;2022-08-18T03:06:50;5.82;;;5.32;;
66935;SDS011;53847;51.984;5.896;2022-08-18T03:09:18;5.47;;;5.05;;
66935;SDS011;53847;51.984;5.896;2022-08-18T03:11:44;6.82;;;6.25;;
66935;SDS011;53847;51.984;5.896;2022-08-18T03:14:11;7.15;;;6.47;;
66935;SDS011;53847;51.984;5.896;2022-08-18T03:16:38;6.47;;;5.88;;
66935;SDS011;53847;51.984;5.896;2022-08-18T03:19:06;6.00;;;5.40;;
66935;SDS011;53847;51.984;5.896;2022-08-18T03:21:32;6.65;;;6.05;;
66935;SDS011;53847;51.984;5.896;2022-08-18T03:23:59;5.05;;;4.55;;
66935;SDS011;53847;51.984;5.896;2022-08-18T03:26:25;8.45;;;7.70;;
66935;SDS011;53847;51.984;5.896;2022-08-18T03:28:52;6.60;;;6.10;;
66935;SDS011;53847;51.984;5.896;2022-08-18T03:31:20;4.80;;;4.40;;
66935;SDS011;53847;51.984;5.896;2022-08-18T03:33:48;5.03;;;4.25;;
66935;SDS011;53847;51.984;5.896;2022-08-18T03:36:15;6.50;;;5.90;;
66935;SDS011;53847;51.984;5.896;2022-08-18T03:38:44;6.25;;;5.13;;
66935;SDS011;53847;51.984;5.896;2022-08-18T03:41:11;3.92;;;3.53;;
66935;SDS011;53847;51.984;5.896;2022-08-18T03:43:38;4.43;;;4.07;;
66935;SDS011;53847;51.984;5.896;2022-08-18T03:46:07;4.20;;;3.80;;
66935;SDS011;53847;51.984;5.896;2022-08-18T03:48:38;3.78;;;3.47;;
66935;SDS011;53847;51.984;5.896;2022-08-18T03:51:06;3.35;;;3.03;;
66935;SDS011;53847;51.984;5.896;2022-08-18T03:53:35;4.47;;;4.13;;
66935;SDS011;53847;51.984;5.896;2022-08-18T03:56:05;4.90;;;4.50;;
66935;SDS011;53847;51.984;5.896;2022-08-18T03:58:36;4.00;;;3.63;;
66935;SDS011;53847;51.984;5.896;2022-08-18T04:01:02;5.22;;;4.68;;
66935;SDS011;53847;51.984;5.896;2022-08-18T04:03:28;4.55;;;4.25;;
66935;SDS011;53847;51.984;5.896;2022-08-18T04:05:54;4.38;;;3.97;;
66935;SDS011;53847;51.984;5.896;2022-08-18T04:08:20;3.85;;;3.55;;
66935;SDS011;53847;51.984;5.896;2022-08-18T04:10:46;4.65;;;4.25;;
66935;SDS011;53847;51.984;5.896;2022-08-18T04:13:12;4.20;;;3.90;;
66935;SDS011;53847;51.984;5.896;2022-08-18T04:15:38;5.85;;;4.47;;
66935;SDS011;53847;51.984;5.896;2022-08-18T04:18:04;4.50;;;4.10;;
66935;SDS011;53847;51.984;5.896;2022-08-18T04:20:31;4.75;;;4.35;;
66935;SDS011;53847;51.984;5.896;2022-08-18T04:22:57;4.45;;;4.05;;
66935;SDS011;53847;51.984;5.896;2022-08-18T04:25:24;4.45;;;4.15;;
66935;SDS011;53847;51.984;5.896;2022-08-18T04:27:50;3.97;;;3.58;;
66935;SDS011;53847;51.984;5.896;2022-08-18T04:30:16;3.95;;;3.65;;
66935;SDS011;53847;51.984;5.896;2022-08-18T04:32:42;3.92;;;3.58;;
66935;SDS011;53847;51.984;5.896;2022-08-18T04:35:08;3.50;;;3.20;;
66935;SDS011;53847;51.984;5.896;2022-08-18T04:37:36;4.10;;;3.80;;
66935;SDS011;53847;51.984;5.896;2022-08-18T04:40:03;5.30;;;4.85;;
66935;SDS011;53847;51.984;5.896;2022-08-18T04:42:30;5.20;;;4.80;;
66935;SDS011;53847;51.984;5.896;2022-08-18T04:44:56;4.45;;;4.05;;
66935;SDS011;53847;51.984;5.896;2022-08-18T04:47:22;5.40;;;5.00;;
66935;SDS011;53847;51.984;5.896;2022-08-18T04:49:48;4.00;;;3.70;;
66935;SDS011;53847;51.984;5.896;2022-08-18T04:52:14;5.45;;;4.88;;
66935;SDS011;53847;51.984;5.896;2022-08-18T04:54:40;5.30;;;4.75;;
66935;SDS011;53847;51.984;5.896;2022-08-18T04:57:07;5.25;;;4.72;;
66935;SDS011;53847;51.984;5.896;2022-08-18T04:59:35;5.00;;;4.60;;
66935;SDS011;53847;51.984;5.896;2022-08-18T05:02:02;4.70;;;4.00;;
66935;SDS011;53847;51.984;5.896;2022-08-18T05:04:29;4.72;;;4.32;;
66935;SDS011;53847;51.984;5.896;2022-08-18T05:06:55;5.50;;;5.00;;
66935;SDS011;53847;51.984;5.896;2022-08-18T05:09:24;7.15;;;5.40;;
66935;SDS011;53847;51.984;5.896;2022-08-18T05:11:50;5.22;;;4.72;;
66935;SDS011;53847;51.984;5.896;2022-08-18T05:14:16;5.25;;;4.85;;
66935;SDS011;53847;51.984;5.896;2022-08-18T05:16:43;5.95;;;5.45;;
66935;SDS011;53847;51.984;5.896;2022-08-18T05:19:10;6.38;;;5.78;;
66935;SDS011;53847;51.984;5.896;2022-08-18T05:21:37;5.22;;;4.75;;
66935;SDS011;53847;51.984;5.896;2022-08-18T05:24:03;5.78;;;5.28;;
66935;SDS011;53847;51.984;5.896;2022-08-18T05:26:30;6.15;;;5.65;;
66935;SDS011;53847;51.984;5.896;2022-08-18T05:28:56;6.32;;;5.53;;
66935;SDS011;53847;51.984;5.896;2022-08-18T05:31:23;6.78;;;5.38;;
66935;SDS011;53847;51.984;5.896;2022-08-18T05:33:51;6.22;;;5.32;;
66935;SDS011;53847;51.984;5.896;2022-08-18T05:42:07;4.93;;;4.43;;
66935;SDS011;53847;51.984;5.896;2022-08-18T05:44:41;5.97;;;5.47;;
66935;SDS011;53847;51.984;5.896;2022-08-18T05:49:48;5.65;;;5.15;;
66935;SDS011;53847;51.984;5.896;2022-08-18T05:52:17;6.40;;;5.75;;
66935;SDS011;53847;51.984;5.896;2022-08-18T05:54:48;6.20;;;5.43;;
66935;SDS011;53847;51.984;5.896;2022-08-18T05:57:17;5.10;;;4.60;;
66935;SDS011;53847;51.984;5.896;2022-08-18T05:59:46;4.53;;;4.13;;
66935;SDS011;53847;51.984;5.896;2022-08-18T06:02:17;5.20;;;4.30;;
66935;SDS011;53847;51.984;5.896;2022-08-18T06:04:55;5.57;;;4.80;;
66935;SDS011;53847;51.984;5.896;2022-08-18T06:07:45;4.88;;;4.47;;
66935;SDS011;53847;51.984;5.896;2022-08-18T06:10:35;5.35;;;4.85;;
66935;SDS011;53847;51.984;5.896;2022-08-18T06:13:02;5.10;;;4.60;;
66935;SDS011;53847;51.984;5.896;2022-08-18T06:15:46;6.43;;;5.80;;
66935;SDS011;53847;51.984;5.896;2022-08-18T06:18:20;6.82;;;6.00;;
66935;SDS011;53847;51.984;5.896;2022-08-18T06:29:46;4.68;;;4.28;;
66935;SDS011;53847;51.984;5.896;2022-08-18T06:38:00;4.43;;;3.80;;
66935;SDS011;53847;51.984;5.896;2022-08-18T06:40:34;3.53;;;3.22;;
66935;SDS011;53847;51.984;5.896;2022-08-18T06:43:00;5.95;;;3.55;;
66935;SDS011;53847;51.984;5.896;2022-08-18T06:45:33;5.22;;;4.00;;
66935;SDS011;53847;51.984;5.896;2022-08-18T06:53:48;3.83;;;3.53;;
66935;SDS011;53847;51.984;5.896;2022-08-18T07:01:14;3.95;;;3.65;;
66935;SDS011;53847;51.984;5.896;2022-08-18T07:03:48;3.90;;;3.40;;
66935;SDS011;53847;51.984;5.896;2022-08-18T07:08:45;4.10;;;3.70;;
66935;SDS011;53847;51.984;5.896;2022-08-18T07:11:31;4.60;;;3.28;;
66935;SDS011;53847;51.984;5.896;2022-08-18T07:14:11;4.78;;;3.83;;
66935;SDS011;53847;51.984;5.896;2022-08-18T07:19:13;3.78;;;3.03;;
66935;SDS011;53847;51.984;5.896;2022-08-18T07:21:41;2.90;;;2.70;;
66935;SDS011;53847;51.984;5.896;2022-08-18T07:29:28;3.28;;;2.80;;
66935;SDS011;53847;51.984;5.896;2022-08-18T07:31:57;3.75;;;2.65;;
66935;SDS011;53847;51.984;5.896;2022-08-18T07:34:28;3.37;;;3.00;;
66935;SDS011;53847;51.984;5.896;2022-08-18T07:37:05;3.42;;;2.80;;
66935;SDS011;53847;51.984;5.896;2022-08-18T07:39:53;2.88;;;2.60;;
66935;SDS011;53847;51.984;5.896;2022-08-18T07:42:41;2.75;;;2.55;;
66935;SDS011;53847;51.984;5.896;2022-08-18T07:45:18;3.50;;;3.20;;
66935;SDS011;53847;51.984;5.896;2022-08-18T07:48:06;2.40;;;2.20;;
66935;SDS011;53847;51.984;5.896;2022-08-18T07:50:53;3.17;;;2.88;;
66935;SDS011;53847;51.984;5.896;2022-08-18T07:59:11;3.47;;;2.60;;
66935;SDS011;53847;51.984;5.896;2022-08-18T08:01:51;4.00;;;3.45;;
66935;SDS011;53847;51.984;5.896;2022-08-18T08:07:44;3.03;;;2.13;;
66935;SDS011;53847;51.984;5.896;2022-08-18T08:10:32;2.63;;;2.20;;
66935;SDS011;53847;51.984;5.896;2022-08-18T08:16:02;2.83;;;2.63;;
66935;SDS011;53847;51.984;5.896;2022-08-18T08:21:23;3.23;;;2.93;;
66935;SDS011;53847;51.984;5.896;2022-08-18T08:26:52;3.83;;;2.75;;
66935;SDS011;53847;51.984;5.896;2022-08-18T08:32:34;3.88;;;3.25;;
66935;SDS011;53847;51.984;5.896;2022-08-18T08:35:17;2.85;;;2.63;;
66935;SDS011;53847;51.984;5.896;2022-08-18T08:43:01;2.53;;;2.33;;
66935;SDS011;53847;51.984;5.896;2022-08-18T08:45:34;3.20;;;2.90;;
66935;SDS011;53847;51.984;5.896;2022-08-18T08:48:05;3.30;;;3.00;;
66935;SDS011;53847;51.984;5.896;2022-08-18T08:50:42;3.13;;;2.83;;
66935;SDS011;53847;51.984;5.896;2022-08-18T08:53:44;2.60;;;2.13;;
66935;SDS011;53847;51.984;5.896;2022-08-18T08:56:27;2.10;;;1.90;;
66935;SDS011;53847;51.984;5.896;2022-08-18T08:58:58;2.28;;;2.10;;
66935;SDS011;53847;51.984;5.896;2022-08-18T09:04:00;2.63;;;2.40;;
66935;SDS011;53847;51.984;5.896;2022-08-18T09:06:59;2.30;;;2.15;;
66935;SDS011;53847;51.984;5.896;2022-08-18T09:15:15;2.88;;;2.67;;
66935;SDS011;53847;51.984;5.896;2022-08-18T09:24:07;3.05;;;2.70;;
66935;SDS011;53847;51.984;5.896;2022-08-18T09:38:09;2.08;;;1.92;;
66935;SDS011;53847;51.984;5.896;2022-08-18T09:40:12;2.40;;;2.17;;
66935;SDS011;53847;51.984;5.896;2022-08-18T09:42:50;2.58;;;2.38;;
66935;SDS011;53847;51.984;5.896;2022-08-18T09:48:00;2.25;;;2.10;;
66935;SDS011;53847;51.984;5.896;2022-08-18T09:50:33;2.97;;;2.70;;
66935;SDS011;53847;51.984;5.896;2022-08-18T09:53:15;2.58;;;2.38;;
66935;SDS011;53847;51.984;5.896;2022-08-18T09:56:02;2.97;;;2.70;;
66935;SDS011;53847;51.984;5.896;2022-08-18T10:06:38;2.50;;;2.30;;
66935;SDS011;53847;51.984;5.896;2022-08-18T10:11:49;2.83;;;2.53;;
66935;SDS011;53847;51.984;5.896;2022-08-18T10:14:35;2.92;;;2.72;;
66935;SDS011;53847;51.984;5.896;2022-08-18T10:17:52;3.35;;;2.80;;
66935;SDS011;53847;51.984;5.896;2022-08-18T10:23:02;2.53;;;2.28;;
66935;SDS011;53847;51.984;5.896;2022-08-18T10:28:09;2.53;;;2.33;;
66935;SDS011;53847;51.984;5.896;2022-08-18T10:31:00;2.85;;;2.25;;
66935;SDS011;53847;51.984;5.896;2022-08-18T10:36:47;2.47;;;2.28;;
66935;SDS011;53847;51.984;5.896;2022-08-18T10:39:26;2.47;;;2.25;;
66935;SDS011;53847;51.984;5.896;2022-08-18T10:42:17;2.40;;;2.20;;
66935;SDS011;53847;51.984;5.896;2022-08-18T10:44:45;2.78;;;2.28;;
66935;SDS011;53847;51.984;5.896;2022-08-18T10:47:22;2.65;;;2.45;;
66935;SDS011;53847;51.984;5.896;2022-08-18T10:49:54;2.80;;;2.40;;
66935;SDS011;53847;51.984;5.896;2022-08-18T10:55:12;2.80;;;2.60;;
66935;SDS011;53847;51.984;5.896;2022-08-18T11:00:47;2.45;;;2.25;;
66935;SDS011;53847;51.984;5.896;2022-08-18T11:03:18;2.45;;;2.20;;
66935;SDS011;53847;51.984;5.896;2022-08-18T11:06:05;2.67;;;2.40;;
66935;SDS011;53847;51.984;5.896;2022-08-18T11:08:35;3.55;;;2.90;;
66935;SDS011;53847;51.984;5.896;2022-08-18T11:11:07;2.60;;;2.40;;
66935;SDS011;53847;51.984;5.896;2022-08-18T11:13:40;3.22;;;2.90;;
66935;SDS011;53847;51.984;5.896;2022-08-18T11:19:10;3.40;;;3.10;;
66935;SDS011;53847;51.984;5.896;2022-08-18T11:21:39;3.10;;;2.90;;
66935;SDS011;53847;51.984;5.896;2022-08-18T11:24:18;3.67;;;3.25;;
66935;SDS011;53847;51.984;5.896;2022-08-18T11:29:36;4.80;;;3.70;;
66935;SDS011;53847;51.984;5.896;2022-08-18T11:32:10;3.63;;;3.20;;
66935;SDS011;53847;51.984;5.896;2022-08-18T11:37:33;3.30;;;3.00;;
66935;SDS011;53847;51.984;5.896;2022-08-18T11:40:03;3.75;;;3.15;;
66935;SDS011;53847;51.984;5.896;2022-08-18T11:42:32;4.03;;;3.20;;
66935;SDS011;53847;51.984;5.896;2022-08-18T11:45:03;3.83;;;2.95;;
66935;SDS011;53847;51.984;5.896;2022-08-18T11:50:49;3.75;;;3.08;;
66935;SDS011;53847;51.984;5.896;2022-08-18T11:53:50;4.75;;;3.75;;
66935;SDS011;53847;51.984;5.896;2022-08-18T11:58:47;3.70;;;3.40;;
66935;SDS011;53847;51.984;5.896;2022-08-18T12:04:09;4.13;;;3.45;;
66935;SDS011;53847;51.984;5.896;2022-08-18T12:06:38;3.38;;;2.88;;
66935;SDS011;53847;51.984;5.896;2022-08-18T12:09:21;3.50;;;3.17;;
66935;SDS011;53847;51.984;5.896;2022-08-18T12:11:55;2.90;;;2.70;;
66935;SDS011;53847;51.984;5.896;2022-08-18T12:14:25;3.38;;;3.10;;
66935;SDS011;53847;51.984;5.896;2022-08-18T12:16:54;4.43;;;3.33;;
66935;SDS011;53847;51.984;5.896;2022-08-18T12:19:20;3.15;;;2.95;;
66935;SDS011;53847;51.984;5.896;2022-08-18T12:21:52;3.63;;;2.85;;
66935;SDS011;53847;51.984;5.896;2022-08-18T12:24:22;3.67;;;2.90;;
66935;SDS011;53847;51.984;5.896;2022-08-18T12:26:52;3.25;;;2.90;;
66935;SDS011;53847;51.984;5.896;2022-08-18T12:29:19;2.80;;;2.50;;
66935;SDS011;53847;51.984;5.896;2022-08-18T12:31:46;2.60;;;2.40;;
66935;SDS011;53847;51.984;5.896;2022-08-18T12:34:17;2.50;;;2.17;;
66935;SDS011;53847;51.984;5.896;2022-08-18T12:36:49;2.28;;;2.08;;
66935;SDS011;53847;51.984;5.896;2022-08-18T12:39:19;2.42;;;2.22;;
66935;SDS011;53847;51.984;5.896;2022-08-18T12:41:45;2.70;;;2.47;;
66935;SDS011;53847;51.984;5.896;2022-08-18T12:44:13;3.53;;;3.22;;
66935;SDS011;53847;51.984;5.896;2022-08-18T12:46:39;2.78;;;2.58;;
66935;SDS011;53847;51.984;5.896;2022-08-18T12:49:09;2.60;;;2.40;;
66935;SDS011;53847;51.984;5.896;2022-08-18T12:51:42;3.38;;;3.00;;
66935;SDS011;53847;51.984;5.896;2022-08-18T12:54:09;2.75;;;2.55;;
66935;SDS011;53847;51.984;5.896;2022-08-18T12:56:35;2.78;;;2.58;;
66935;SDS011;53847;51.984;5.896;2022-08-18T12:59:03;2.97;;;2.50;;
66935;SDS011;53847;51.984;5.896;2022-08-18T13:01:31;2.35;;;2.15;;
66935;SDS011;53847;51.984;5.896;2022-08-18T13:03:58;1.90;;;1.80;;
66935;SDS011;53847;51.984;5.896;2022-08-18T13:06:27;2.45;;;2.25;;
66935;SDS011;53847;51.984;5.896;2022-08-18T13:08:55;2.30;;;2.17;;
66935;SDS011;53847;51.984;5.896;2022-08-18T13:11:22;3.30;;;2.45;;
66935;SDS011;53847;51.984;5.896;2022-08-18T13:13:49;3.15;;;2.85;;
66935;SDS011;53847;51.984;5.896;2022-08-18T13:16:16;2.50;;;2.30;;
66935;SDS011;53847;51.984;5.896;2022-08-18T13:18:43;5.38;;;3.25;;
66935;SDS011;53847;51.984;5.896;2022-08-18T13:21:10;3.42;;;2.80;;
66935;SDS011;53847;51.984;5.896;2022-08-18T13:23:38;3.60;;;2.95;;
66935;SDS011;53847;51.984;5.896;2022-08-18T13:26:05;4.05;;;3.03;;
66935;SDS011;53847;51.984;5.896;2022-08-18T13:28:33;2.97;;;2.75;;
66935;SDS011;53847;51.984;5.896;2022-08-18T13:31:17;3.10;;;2.80;;
66935;SDS011;53847;51.984;5.896;2022-08-18T13:33:43;2.55;;;2.35;;
66935;SDS011;53847;51.984;5.896;2022-08-18T13:36:16;3.38;;;3.00;;
66935;SDS011;53847;51.984;5.896;2022-08-18T13:38:44;3.75;;;2.75;;
66935;SDS011;53847;51.984;5.896;2022-08-18T13:41:10;3.38;;;3.08;;
66935;SDS011;53847;51.984;5.896;2022-08-18T13:43:40;2.60;;;2.40;;
66935;SDS011;53847;51.984;5.896;2022-08-18T13:46:08;2.60;;;2.40;;
66935;SDS011;53847;51.984;5.896;2022-08-18T13:48:36;2.78;;;2.58;;
66935;SDS011;53847;51.984;5.896;2022-08-18T13:51:07;2.00;;;1.90;;
66935;SDS011;53847;51.984;5.896;2022-08-18T13:53:35;2.85;;;2.33;;
66935;SDS011;53847;51.984;5.896;2022-08-18T13:56:03;2.10;;;1.90;;
66935;SDS011;53847;51.984;5.896;2022-08-18T13:58:30;2.58;;;2.38;;
66935;SDS011;53847;51.984;5.896;2022-08-18T14:00:57;2.97;;;2.58;;
66935;SDS011;53847;51.984;5.896;2022-08-18T14:03:25;2.30;;;2.05;;
66935;SDS011;53847;51.984;5.896;2022-08-18T14:05:51;3.25;;;2.75;;
66935;SDS011;53847;51.984;5.896;2022-08-18T14:08:18;2.83;;;2.50;;
66935;SDS011;53847;51.984;5.896;2022-08-18T14:10:45;2.72;;;2.53;;
66935;SDS011;53847;51.984;5.896;2022-08-18T14:13:13;2.50;;;2.30;;
66935;SDS011;53847;51.984;5.896;2022-08-18T14:15:40;3.28;;;2.97;;
66935;SDS011;53847;51.984;5.896;2022-08-18T14:18:06;3.35;;;3.05;;
66935;SDS011;53847;51.984;5.896;2022-08-18T14:20:32;2.70;;;2.50;;
66935;SDS011;53847;51.984;5.896;2022-08-18T14:23:00;2.85;;;2.65;;
66935;SDS011;53847;51.984;5.896;2022-08-18T14:25:27;2.45;;;2.25;;
66935;SDS011;53847;51.984;5.896;2022-08-18T14:27:53;2.80;;;2.60;;
66935;SDS011;53847;51.984;5.896;2022-08-18T14:30:19;2.50;;;2.30;;
66935;SDS011;53847;51.984;5.896;2022-08-18T14:32:45;3.33;;;2.67;;
66935;SDS011;53847;51.984;5.896;2022-08-18T14:35:12;2.67;;;2.35;;
66935;SDS011;53847;51.984;5.896;2022-08-18T14:37:39;2.78;;;2.58;;
66935;SDS011;53847;51.984;5.896;2022-08-18T14:40:06;3.65;;;2.70;;
66935;SDS011;53847;51.984;5.896;2022-08-18T14:42:33;2.70;;;2.50;;
66935;SDS011;53847;51.984;5.896;2022-08-18T14:44:59;3.55;;;2.60;;
66935;SDS011;53847;51.984;5.896;2022-08-18T14:47:25;2.88;;;2.55;;
66935;SDS011;53847;51.984;5.896;2022-08-18T14:49:52;3.20;;;2.55;;
66935;SDS011;53847;51.984;5.896;2022-08-18T14:52:19;2.70;;;2.33;;
66935;SDS011;53847;51.984;5.896;2022-08-18T14:54:45;2.53;;;2.33;;
66935;SDS011;53847;51.984;5.896;2022-08-18T14:57:11;3.25;;;2.60;;
66935;SDS011;53847;51.984;5.896;2022-08-18T14:59:37;3.00;;;2.65;;
66935;SDS011;53847;51.984;5.896;2022-08-18T15:02:04;2.78;;;2.45;;
66935;SDS011;53847;51.984;5.896;2022-08-18T15:04:34;3.53;;;2.45;;
66935;SDS011;53847;51.984;5.896;2022-08-18T15:07:01;2.55;;;2.35;;
66935;SDS011;53847;51.984;5.896;2022-08-18T15:09:28;3.00;;;2.78;;
66935;SDS011;53847;51.984;5.896;2022-08-18T15:11:58;2.75;;;2.55;;
66935;SDS011;53847;51.984;5.896;2022-08-18T15:14:25;2.60;;;2.30;;
66935;SDS011;53847;51.984;5.896;2022-08-18T15:16:52;3.22;;;2.92;;
66935;SDS011;53847;51.984;5.896;2022-08-18T15:19:18;3.08;;;2.88;;
66935;SDS011;53847;51.984;5.896;2022-08-18T15:21:44;2.55;;;2.35;;
66935;SDS011;53847;51.984;5.896;2022-08-18T15:24:10;2.88;;;2.67;;
66935;SDS011;53847;51.984;5.896;2022-08-18T15:26:36;2.80;;;2.60;;
66935;SDS011;53847;51.984;5.896;2022-08-18T15:29:03;3.33;;;3.03;;
66935;SDS011;53847;51.984;5.896;2022-08-18T15:31:30;2.83;;;2.50;;
66935;SDS011;53847;51.984;5.896;2022-08-18T15:33:57;2.60;;;2.40;;
66935;SDS011;53847;51.984;5.896;2022-08-18T15:36:23;2.60;;;2.40;;
66935;SDS011;53847;51.984;5.896;2022-08-18T15:38:49;2.85;;;2.65;;
66935;SDS011;53847;51.984;5.896;2022-08-18T15:41:25;2.63;;;2.42;;
66935;SDS011;53847;51.984;5.896;2022-08-18T15:44:00;2.88;;;2.63;;
66935;SDS011;53847;51.984;5.896;2022-08-18T15:46:27;2.40;;;2.20;;
66935;SDS011;53847;51.984;5.896;2022-08-18T15:48:57;1.90;;;1.80;;
66935;SDS011;53847;51.984;5.896;2022-08-18T15:51:23;2.22;;;2.03;;
66935;SDS011;53847;51.984;5.896;2022-08-18T15:53:49;3.67;;;2.40;;
66935;SDS011;53847;51.984;5.896;2022-08-18T15:56:19;2.88;;;2.20;;
66935;SDS011;53847;51.984;5.896;2022-08-18T15:58:48;2.33;;;2.10;;
66935;SDS011;53847;51.984;5.896;2022-08-18T16:01:15;2.40;;;2.10;;
66935;SDS011;53847;51.984;5.896;2022-08-18T16:03:42;2.65;;;1.80;;
66935;SDS011;53847;51.984;5.896;2022-08-18T16:06:13;2.42;;;2.22;;
66935;SDS011;53847;51.984;5.896;2022-08-18T16:08:41;2.63;;;2.10;;
66935;SDS011;53847;51.984;5.896;2022-08-18T16:11:08;3.03;;;2.45;;
66935;SDS011;53847;51.984;5.896;2022-08-18T16:13:36;1.90;;;1.80;;
66935;SDS011;53847;51.984;5.896;2022-08-18T16:16:12;2.70;;;2.10;;
66935;SDS011;53847;51.984;5.896;2022-08-18T16:18:41;2.25;;;2.05;;
66935;SDS011;53847;51.984;5.896;2022-08-18T16:21:08;1.90;;;1.80;;
66935;SDS011;53847;51.984;5.896;2022-08-18T16:23:39;2.55;;;2.28;;
66935;SDS011;53847;51.984;5.896;2022-08-18T16:26:08;2.60;;;2.40;;
66935;SDS011;53847;51.984;5.896;2022-08-18T16:28:35;2.42;;;2.22;;
66935;SDS011;53847;51.984;5.896;2022-08-18T16:31:01;3.22;;;2.50;;
66935;SDS011;53847;51.984;5.896;2022-08-18T16:33:28;2.15;;;1.95;;
66935;SDS011;53847;51.984;5.896;2022-08-18T16:35:54;2.10;;;1.90;;
66935;SDS011;53847;51.984;5.896;2022-08-18T16:38:20;2.50;;;2.30;;
66935;SDS011;53847;51.984;5.896;2022-08-18T16:40:46;2.33;;;2.13;;
66935;SDS011;53847;51.984;5.896;2022-08-18T16:43:12;2.00;;;1.90;;
66935;SDS011;53847;51.984;5.896;2022-08-18T16:45:39;2.70;;;2.50;;
66935;SDS011;53847;51.984;5.896;2022-08-18T16:48:09;3.38;;;2.67;;
66935;SDS011;53847;51.984;5.896;2022-08-18T16:50:36;2.55;;;2.35;;
66935;SDS011;53847;51.984;5.896;2022-08-18T16:53:03;1.85;;;1.75;;
66935;SDS011;53847;51.984;5.896;2022-08-18T16:55:29;2.08;;;1.98;;
66935;SDS011;53847;51.984;5.896;2022-08-18T16:57:58;2.40;;;2.20;;
66935;SDS011;53847;51.984;5.896;2022-08-18T17:00:24;2.30;;;2.10;;
66935;SDS011;53847;51.984;5.896;2022-08-18T17:02:51;2.42;;;2.22;;
66935;SDS011;53847;51.984;5.896;2022-08-18T17:05:17;2.55;;;2.10;;
66935;SDS011;53847;51.984;5.896;2022-08-18T17:07:43;2.40;;;2.20;;
66935;SDS011;53847;51.984;5.896;2022-08-18T17:10:09;2.78;;;2.20;;
66935;SDS011;53847;51.984;5.896;2022-08-18T17:12:35;2.35;;;2.10;;
66935;SDS011;53847;51.984;5.896;2022-08-18T17:15:02;2.17;;;1.98;;
66935;SDS011;53847;51.984;5.896;2022-08-18T17:17:28;2.30;;;2.10;;
66935;SDS011;53847;51.984;5.896;2022-08-18T17:19:54;1.90;;;1.80;;
66935;SDS011;53847;51.984;5.896;2022-08-18T17:22:20;2.08;;;1.90;;
66935;SDS011;53847;51.984;5.896;2022-08-18T17:24:46;2.25;;;2.05;;